Time;durP1;ratioP1;P1;durP2;ratioP2;P2;SDS_P1;SDS_P2;PMS_P1;PMS_P2;Temp;Humidity;BMP_temperature;BMP_pressure;BME280_temperature;BME280_humidity;BME280_pressure;Samples;Min_cycle;Max_cycle;Signal;HPM_P1;HPM_P2
2023/06/10 00:01:38;;;;;;;10.38;5.30;;;17.00;99.90;;;;;;5015689;28;20084;-73
2023/06/10 00:04:04;;;;;;;7.25;4.43;;;17.00;99.90;;;;;;4999210;28;20061;-73
2023/06/10 00:06:35;;;;;;;10.80;5.20;;;16.90;99.90;;;;;;4999309;28;20088;-73
2023/06/10 00:09:05;;;;;;;12.07;5.27;;;17.00;99.90;;;;;;5000045;28;20077;-73
2023/06/10 00:11:33;;;;;;;9.88;5.40;;;16.90;99.90;;;;;;5015441;28;20052;-73
2023/06/10 00:14:00;;;;;;;12.02;5.45;;;16.90;99.90;;;;;;5015461;28;20120;-73
2023/06/10 00:16:26;;;;;;;9.45;5.30;;;16.80;99.90;;;;;;5015645;28;20038;-73
2023/06/10 00:18:52;;;;;;;8.98;4.88;;;16.80;99.90;;;;;;5015418;28;20050;-73
2023/06/10 00:21:18;;;;;;;9.73;5.63;;;16.80;99.90;;;;;;5015249;28;20108;-73
2023/06/10 00:23:45;;;;;;;9.30;5.38;;;16.80;99.90;;;;;;4999131;28;20049;-73
2023/06/10 00:26:10;;;;;;;10.20;5.60;;;16.80;99.90;;;;;;4999004;28;20056;-73
2023/06/10 00:28:36;;;;;;;8.35;4.93;;;16.70;99.90;;;;;;4999189;28;20121;-73
2023/06/10 00:31:04;;;;;;;10.32;5.50;;;16.60;99.90;;;;;;5014955;28;20054;-73
2023/06/10 00:33:31;;;;;;;9.07;5.50;;;16.60;99.90;;;;;;4999162;28;20046;-73
2023/06/10 00:35:56;;;;;;;11.02;5.90;;;16.60;99.90;;;;;;4998745;28;20052;-73
2023/06/10 00:38:22;;;;;;;10.35;6.20;;;16.50;99.90;;;;;;4982844;28;20117;-72
2023/06/10 00:40:49;;;;;;;11.63;5.78;;;16.50;99.90;;;;;;4998977;28;20039;-73
2023/06/10 00:43:15;;;;;;;11.57;6.05;;;16.40;99.90;;;;;;4966432;28;20053;-73
2023/06/10 00:45:40;;;;;;;10.90;5.65;;;16.30;99.90;;;;;;4998540;28;20391;-73
2023/06/10 00:48:07;;;;;;;10.00;6.40;;;16.30;99.90;;;;;;4998789;28;20038;-73
2023/06/10 00:50:34;;;;;;;9.82;5.88;;;16.30;99.90;;;;;;4998513;28;20100;-73
2023/06/10 00:53:01;;;;;;;11.05;6.07;;;16.30;99.90;;;;;;5014570;28;20132;-73
2023/06/10 00:55:27;;;;;;;11.20;6.25;;;16.30;99.90;;;;;;4998290;28;20046;-73
2023/06/10 00:57:53;;;;;;;11.90;6.47;;;16.30;99.90;;;;;;4998678;28;20048;-73
2023/06/10 01:00:20;;;;;;;13.05;6.43;;;16.30;99.90;;;;;;4998578;28;20038;-73
2023/06/10 01:02:46;;;;;;;12.02;6.45;;;16.30;99.90;;;;;;4982264;28;20045;-74
2023/06/10 01:05:12;;;;;;;11.05;6.45;;;16.30;99.90;;;;;;5014505;28;20494;-73
2023/06/10 01:08:05;;;;;;;12.02;6.30;;;16.30;99.90;;;;;;5014469;28;20045;-74
2023/06/10 01:10:55;;;;;;;14.52;6.88;;;16.30;99.90;;;;;;4961858;28;20054;-73
2023/06/10 01:13:23;;;;;;;11.45;6.50;;;16.30;99.90;;;;;;5014370;28;20038;-74
2023/06/10 01:15:51;;;;;;;10.27;6.28;;;16.20;99.90;;;;;;5014313;28;20049;-73
2023/06/10 01:18:17;;;;;;;13.18;6.43;;;16.30;99.90;;;;;;5014577;28;20601;-73
2023/06/10 01:20:44;;;;;;;11.10;6.57;;;16.20;99.90;;;;;;5014231;28;20046;-74
2023/06/10 01:23:10;;;;;;;10.18;6.10;;;16.20;99.90;;;;;;5014131;28;20041;-73
2023/06/10 01:26:00;;;;;;;10.48;6.60;;;16.20;99.90;;;;;;4997749;28;20104;-73
2023/06/10 01:28:35;;;;;;;11.45;6.70;;;16.20;99.90;;;;;;5014017;28;20038;-74
2023/06/10 01:31:23;;;;;;;13.07;7.30;;;16.00;99.90;;;;;;5013618;28;20069;-73
2023/06/10 01:33:52;;;;;;;12.40;6.68;;;16.00;99.90;;;;;;5014247;28;20042;-73
2023/06/10 01:36:21;;;;;;;12.43;7.18;;;16.00;99.90;;;;;;4997738;28;20038;-73
2023/06/10 01:38:49;;;;;;;11.07;7.00;;;15.90;99.90;;;;;;5013933;28;20045;-72
2023/06/10 01:41:18;;;;;;;13.15;7.57;;;15.90;99.90;;;;;;5013832;28;20042;-72
2023/06/10 01:43:45;;;;;;;11.80;6.75;;;15.90;99.90;;;;;;5014119;28;20132;-72
2023/06/10 01:46:11;;;;;;;12.95;6.78;;;15.80;99.90;;;;;;5013707;28;20064;-73
2023/06/10 01:48:38;;;;;;;12.77;6.88;;;15.80;99.90;;;;;;5013712;28;20046;-72
2023/06/10 01:51:05;;;;;;;13.20;7.07;;;15.70;99.90;;;;;;5013727;28;20178;-72
2023/06/10 01:53:30;;;;;;;10.77;6.50;;;15.70;99.90;;;;;;4997322;28;20046;-73
2023/06/10 01:55:56;;;;;;;12.57;6.93;;;15.70;99.90;;;;;;5013572;28;20050;-73
2023/06/10 01:58:22;;;;;;;12.40;6.57;;;15.60;99.90;;;;;;4997166;28;20038;-73
2023/06/10 02:00:48;;;;;;;10.55;6.85;;;15.70;99.90;;;;;;5013453;28;20063;-74
2023/06/10 02:03:14;;;;;;;11.75;6.70;;;15.60;99.90;;;;;;5013391;28;20052;-73
2023/06/10 02:05:39;;;;;;;13.10;6.63;;;15.50;99.90;;;;;;4981000;28;20129;-73
2023/06/10 02:08:05;;;;;;;13.68;6.75;;;15.50;99.90;;;;;;4996953;28;20045;-73
2023/06/10 02:10:31;;;;;;;12.35;6.85;;;15.40;99.90;;;;;;5013100;28;20050;-73
2023/06/10 02:12:57;;;;;;;10.80;6.45;;;15.40;99.90;;;;;;5013288;28;20180;-73
2023/06/10 02:15:23;;;;;;;11.27;6.70;;;15.40;99.90;;;;;;5013395;28;20049;-73
2023/06/10 02:17:50;;;;;;;13.25;6.38;;;15.40;99.90;;;;;;5013097;28;20044;-72
2023/06/10 02:20:16;;;;;;;12.38;6.68;;;15.30;99.90;;;;;;4996401;28;20490;-72
2023/06/10 02:22:42;;;;;;;13.00;6.40;;;15.30;99.90;;;;;;4996355;28;20046;-72
2023/06/10 02:25:08;;;;;;;13.65;6.70;;;15.20;99.90;;;;;;4996723;28;20050;-73
2023/06/10 02:27:34;;;;;;;11.75;7.03;;;15.20;99.90;;;;;;4996711;28;20038;-73
2023/06/10 02:30:00;;;;;;;11.27;6.90;;;15.10;99.90;;;;;;4996429;28;20042;-73
2023/06/10 02:32:26;;;;;;;12.82;7.00;;;15.10;99.90;;;;;;5012732;28;20144;-72
2023/06/10 02:34:53;;;;;;;13.20;6.60;;;15.10;99.90;;;;;;4996543;28;20045;-73
2023/06/10 02:37:19;;;;;;;10.90;6.85;;;15.00;99.90;;;;;;4996692;28;20034;-73
2023/06/10 02:39:45;;;;;;;10.93;6.43;;;14.90;99.90;;;;;;5013037;28;20088;-72
2023/06/10 02:42:11;;;;;;;12.05;6.68;;;14.90;99.90;;;;;;4996748;28;20042;-73
2023/06/10 02:44:38;;;;;;;13.43;7.03;;;14.90;99.90;;;;;;4996360;28;20046;-72
2023/06/10 02:47:04;;;;;;;11.68;6.93;;;14.90;99.90;;;;;;5012689;28;20052;-72
2023/06/10 02:49:30;;;;;;;12.95;6.70;;;14.90;99.90;;;;;;4980418;28;20100;-72
2023/06/10 02:51:56;;;;;;;11.85;6.43;;;14.80;99.90;;;;;;5012472;28;20045;-72
2023/06/10 02:54:24;;;;;;;13.07;6.80;;;14.80;99.90;;;;;;5012465;28;20048;-72
2023/06/10 02:56:50;;;;;;;15.20;6.95;;;14.80;99.90;;;;;;5012797;28;20104;-72
2023/06/10 02:59:16;;;;;;;10.43;6.43;;;14.70;99.90;;;;;;5012442;28;20073;-72
2023/06/10 03:01:42;;;;;;;11.57;6.38;;;14.70;99.90;;;;;;4996041;28;20069;-72
2023/06/10 03:04:08;;;;;;;12.45;7.10;;;14.70;99.90;;;;;;4980039;28;20038;-72
2023/06/10 03:06:35;;;;;;;11.43;6.65;;;14.70;99.90;;;;;;4996378;28;20034;-72
2023/06/10 03:09:01;;;;;;;11.93;6.60;;;14.60;99.90;;;;;;5012334;28;20037;-72
2023/06/10 03:11:27;;;;;;;12.07;6.85;;;14.60;99.90;;;;;;5012441;28;20042;-72
2023/06/10 03:13:53;;;;;;;13.70;6.65;;;14.50;99.90;;;;;;5012258;28;20103;-72
2023/06/10 03:16:19;;;;;;;12.63;6.68;;;14.40;99.90;;;;;;4996359;28;20486;-72
2023/06/10 03:18:45;;;;;;;12.75;6.80;;;14.30;99.90;;;;;;4996314;28;20041;-72
2023/06/10 03:21:12;;;;;;;14.13;7.10;;;14.30;99.90;;;;;;4979655;28;20034;-72
2023/06/10 03:23:37;;;;;;;12.63;6.75;;;14.30;99.90;;;;;;5012110;28;20445;-72
2023/06/10 03:26:04;;;;;;;11.13;6.93;;;14.20;99.90;;;;;;5012169;28;20053;-72
2023/06/10 03:28:31;;;;;;;12.50;7.30;;;14.20;99.90;;;;;;4995809;28;20045;-72
2023/06/10 03:30:57;;;;;;;15.93;7.43;;;14.20;99.90;;;;;;5011843;28;20065;-72
2023/06/10 03:33:23;;;;;;;12.18;6.53;;;14.10;99.90;;;;;;4995473;28;20049;-72
2023/06/10 03:35:50;;;;;;;12.68;6.90;;;14.10;99.90;;;;;;4995971;28;20038;-72
2023/06/10 03:38:16;;;;;;;12.98;7.07;;;14.10;99.90;;;;;;5012219;28;20133;-72
2023/06/10 03:40:44;;;;;;;15.25;7.60;;;14.10;99.90;;;;;;4996334;28;20505;-72
2023/06/10 03:43:10;;;;;;;12.15;7.05;;;14.10;99.90;;;;;;5012192;28;20052;-72
2023/06/10 03:45:36;;;;;;;14.98;7.53;;;14.00;99.90;;;;;;5011947;28;20045;-72
2023/06/10 03:48:03;;;;;;;12.68;7.55;;;14.00;99.90;;;;;;4995594;28;20042;-72
2023/06/10 03:50:29;;;;;;;13.40;7.22;;;14.00;99.90;;;;;;4995861;28;20088;-72
2023/06/10 03:52:55;;;;;;;15.70;6.88;;;14.00;99.90;;;;;;4976122;28;20077;-72
2023/06/10 03:55:21;;;;;;;12.32;7.32;;;14.00;99.90;;;;;;4992553;28;20042;-73
2023/06/10 03:57:50;;;;;;;12.77;7.22;;;13.90;99.90;;;;;;4976735;28;20045;-72
2023/06/10 04:00:17;;;;;;;13.40;6.72;;;13.90;99.90;;;;;;4975994;28;20039;-72
2023/06/10 04:02:51;;;;;;;12.70;7.53;;;14.00;99.90;;;;;;4992386;28;20046;-72
2023/06/10 04:05:18;;;;;;;13.00;7.30;;;14.00;99.90;;;;;;4992325;28;20049;-72
2023/06/10 04:07:44;;;;;;;16.35;7.80;;;14.00;99.90;;;;;;4992139;28;20093;-72
2023/06/10 04:10:11;;;;;;;14.13;7.18;;;14.10;99.90;;;;;;4992444;28;20096;-72
2023/06/10 04:12:37;;;;;;;13.98;7.45;;;14.10;99.90;;;;;;4975932;28;20042;-72
2023/06/10 04:15:04;;;;;;;12.43;7.32;;;14.10;99.90;;;;;;4960311;28;20042;-72
2023/06/10 04:17:30;;;;;;;13.77;7.25;;;14.00;99.90;;;;;;4992028;28;20089;-72
2023/06/10 04:19:56;;;;;;;13.65;8.10;;;14.00;99.90;;;;;;4992027;28;20042;-72
2023/06/10 04:22:25;;;;;;;15.65;7.70;;;14.00;99.90;;;;;;4985260;28;20068;-72
2023/06/10 04:24:51;;;;;;;12.60;7.30;;;14.00;99.90;;;;;;4995662;28;20049;-72
2023/06/10 04:27:19;;;;;;;13.60;7.18;;;14.10;99.90;;;;;;4995294;28;20042;-71
2023/06/10 04:29:45;;;;;;;16.88;7.88;;;14.10;99.90;;;;;;4995250;28;20045;-71
2023/06/10 04:32:11;;;;;;;13.35;7.53;;;14.10;99.90;;;;;;5011190;28;20054;-71
2023/06/10 04:34:40;;;;;;;16.20;7.97;;;14.10;99.90;;;;;;4995025;28;20042;-71
2023/06/10 04:37:06;;;;;;;14.00;7.85;;;14.00;99.90;;;;;;5011454;28;20041;-70
2023/06/10 04:39:32;;;;;;;15.15;7.85;;;14.10;99.90;;;;;;5011464;28;20046;-72
2023/06/10 04:41:58;;;;;;;14.35;8.18;;;14.20;99.90;;;;;;4995077;28;20050;-73
2023/06/10 04:44:24;;;;;;;13.75;7.93;;;14.20;99.90;;;;;;4964019;28;20049;-72
2023/06/10 04:46:50;;;;;;;13.90;8.15;;;14.20;99.90;;;;;;5014951;28;20053;-73
2023/06/10 04:49:16;;;;;;;12.85;7.72;;;14.20;99.90;;;;;;5014838;28;20064;-73
2023/06/10 04:51:41;;;;;;;14.00;8.40;;;14.30;99.90;;;;;;4982496;28;20088;-73
2023/06/10 04:54:07;;;;;;;13.18;7.28;;;14.50;99.90;;;;;;5014756;28;20042;-72
2023/06/10 04:56:33;;;;;;;12.45;7.20;;;14.70;99.90;;;;;;4998645;28;20129;-72
2023/06/10 04:59:02;;;;;;;12.82;7.35;;;14.90;99.90;;;;;;4998626;28;20045;-73
2023/06/10 05:01:28;;;;;;;12.52;7.28;;;15.00;99.90;;;;;;4998305;28;20038;-73
2023/06/10 05:03:53;;;;;;;11.68;7.35;;;15.20;99.90;;;;;;4982261;28;20144;-73
2023/06/10 05:06:19;;;;;;;14.32;7.50;;;15.50;99.90;;;;;;4998259;28;20044;-73
2023/06/10 05:08:45;;;;;;;11.50;6.93;;;15.90;99.90;;;;;;5014763;28;20061;-73
2023/06/10 05:11:10;;;;;;;13.68;7.22;;;16.00;99.90;;;;;;5014394;28;20124;-71
2023/06/10 05:13:36;;;;;;;12.93;6.93;;;16.40;99.90;;;;;;5014346;28;20041;-71
2023/06/10 05:16:02;;;;;;;13.25;6.68;;;17.10;99.90;;;;;;5014400;28;20104;-73
2023/06/10 05:18:28;;;;;;;14.68;7.43;;;17.40;99.90;;;;;;5014303;28;20125;-73
2023/06/10 05:20:54;;;;;;;11.98;6.55;;;17.50;99.90;;;;;;5014166;28;20054;-73
2023/06/10 05:23:20;;;;;;;11.35;6.30;;;17.80;99.90;;;;;;5014008;28;20042;-73
2023/06/10 05:25:46;;;;;;;14.98;7.10;;;18.00;99.90;;;;;;5014099;28;20064;-73
2023/06/10 05:28:12;;;;;;;14.43;6.50;;;18.80;99.90;;;;;;4997918;28;20038;-73
2023/06/10 05:30:38;;;;;;;12.65;6.53;;;18.90;99.90;;;;;;4981353;28;20049;-73
2023/06/10 05:33:06;;;;;;;12.73;6.28;;;18.80;99.90;;;;;;4997716;28;20088;-73
2023/06/10 05:35:32;;;;;;;12.15;6.72;;;19.30;99.90;;;;;;4997859;28;20045;-73
2023/06/10 05:37:58;;;;;;;13.07;6.57;;;19.90;99.90;;;;;;4997543;28;20042;-73
2023/06/10 05:40:23;;;;;;;12.70;6.30;;;19.50;99.90;;;;;;4997774;28;20045;-73
2023/06/10 05:42:49;;;;;;;11.20;5.93;;;20.00;99.90;;;;;;4997509;28;20053;-73
2023/06/10 05:45:15;;;;;;;11.80;6.43;;;19.70;99.90;;;;;;4997433;28;20137;-73
2023/06/10 05:47:41;;;;;;;11.65;6.38;;;20.10;99.90;;;;;;4997509;28;20042;-73
2023/06/10 05:50:08;;;;;;;11.82;6.22;;;20.00;99.90;;;;;;4997405;28;20038;-73
2023/06/10 05:52:40;;;;;;;13.15;6.60;;;19.50;99.90;;;;;;5013801;28;20048;-73
2023/06/10 05:55:06;;;;;;;15.20;6.28;;;19.90;99.90;;;;;;5013445;28;20038;-72
2023/06/10 05:57:32;;;;;;;10.10;5.38;;;20.20;99.90;;;;;;5013906;28;20034;-73
2023/06/10 05:59:58;;;;;;;11.02;5.65;;;20.80;99.90;;;;;;5013465;28;20045;-73
2023/06/10 06:02:24;;;;;;;11.57;5.80;;;20.80;99.90;;;;;;5013798;28;20064;-73
2023/06/10 06:04:53;;;;;;;13.65;6.32;;;21.00;99.90;;;;;;4997298;28;20053;-73
2023/06/10 06:07:20;;;;;;;10.60;5.88;;;20.80;99.90;;;;;;5013259;28;20048;-73
2023/06/10 06:09:47;;;;;;;10.25;5.90;;;21.20;99.90;;;;;;5013578;28;20041;-73
2023/06/10 06:12:13;;;;;;;11.68;5.82;;;21.10;99.90;;;;;;5013280;28;20046;-73
2023/06/10 06:14:39;;;;;;;10.40;5.20;;;21.40;99.90;;;;;;5013178;28;20046;-73
2023/06/10 06:17:06;;;;;;;9.60;5.20;;;22.10;99.90;;;;;;4997221;28;20405;-73
2023/06/10 06:19:32;;;;;;;11.10;5.85;;;22.60;99.90;;;;;;4996947;28;20053;-73
2023/06/10 06:21:57;;;;;;;10.75;5.30;;;23.40;97.60;;;;;;5013154;28;20046;-73
2023/06/10 06:24:23;;;;;;;13.05;5.75;;;24.00;96.20;;;;;;4997059;28;20045;-73
2023/06/10 06:26:49;;;;;;;9.82;6.00;;;23.40;94.60;;;;;;5013143;28;20058;-73
2023/06/10 06:29:15;;;;;;;11.07;5.90;;;23.10;95.30;;;;;;5013234;28;20131;-72
2023/06/10 06:31:44;;;;;;;12.10;6.20;;;22.60;95.40;;;;;;4996848;28;20049;-72
2023/06/10 06:34:10;;;;;;;9.95;5.57;;;22.50;96.40;;;;;;4996588;28;20418;-73
2023/06/10 06:36:36;;;;;;;11.63;6.28;;;22.70;98.00;;;;;;4980508;28;20133;-73
2023/06/10 06:39:02;;;;;;;10.20;5.50;;;23.00;95.90;;;;;;4980642;28;20038;-73
2023/06/10 06:41:27;;;;;;;11.75;5.35;;;22.70;97.10;;;;;;4996688;28;20048;-73
2023/06/10 06:43:56;;;;;;;11.80;6.18;;;23.30;96.60;;;;;;5012973;28;20096;-73
2023/06/10 06:46:22;;;;;;;10.55;5.78;;;23.10;93.90;;;;;;4996682;28;20034;-73
2023/06/10 06:48:48;;;;;;;12.02;5.88;;;22.90;96.30;;;;;;5012643;28;20497;-73
2023/06/10 06:51:14;;;;;;;10.40;5.60;;;23.10;94.80;;;;;;5012915;28;20087;-73
2023/06/10 06:53:45;;;;;;;12.15;6.22;;;22.70;96.20;;;;;;4992934;28;20074;-72
2023/06/10 06:56:13;;;;;;;12.60;5.97;;;22.20;97.10;;;;;;4994174;28;20088;-73
2023/06/10 06:58:40;;;;;;;9.95;5.95;;;22.60;97.50;;;;;;4976806;28;20042;-73
2023/06/10 07:01:05;;;;;;;11.38;6.10;;;22.20;96.90;;;;;;4960675;28;20042;-74
2023/06/10 07:03:31;;;;;;;10.93;5.70;;;21.90;99.10;;;;;;4993201;28;20540;-74
2023/06/10 07:05:57;;;;;;;12.70;6.30;;;22.50;99.10;;;;;;4976668;28;20129;-74
2023/06/10 07:08:23;;;;;;;13.15;7.15;;;22.90;95.20;;;;;;4975997;28;20042;-73
2023/06/10 07:10:49;;;;;;;12.82;6.72;;;22.20;95.60;;;;;;4992693;28;20046;-74
2023/06/10 07:13:15;;;;;;;13.45;7.18;;;22.50;97.00;;;;;;4976706;28;20073;-75
2023/06/10 07:15:41;;;;;;;12.10;7.15;;;22.50;96.30;;;;;;4976558;28;20104;-74
2023/06/10 07:18:07;;;;;;;11.05;6.82;;;21.90;96.90;;;;;;4976492;28;20039;-75
2023/06/10 07:20:32;;;;;;;11.15;6.97;;;22.50;97.20;;;;;;4976462;28;20134;-76
2023/06/10 07:22:58;;;;;;;12.20;6.72;;;23.00;96.40;;;;;;5007180;28;20042;-75
2023/06/10 07:25:24;;;;;;;13.43;8.02;;;23.30;96.50;;;;;;4963610;28;20057;-75
2023/06/10 07:27:50;;;;;;;12.90;7.55;;;22.90;95.40;;;;;;4996051;28;20088;-74
2023/06/10 07:30:16;;;;;;;14.85;8.65;;;22.80;96.40;;;;;;4979708;28;20049;-74
2023/06/10 07:32:43;;;;;;;12.15;8.02;;;22.50;97.10;;;;;;5011790;28;20050;-74
2023/06/10 07:35:12;;;;;;;13.25;9.02;;;23.30;96.30;;;;;;4996025;28;20146;-75
2023/06/10 07:37:38;;;;;;;13.57;8.50;;;23.30;94.30;;;;;;5012293;28;20430;-74
2023/06/10 07:40:05;;;;;;;13.10;8.40;;;23.80;94.40;;;;;;4979675;28;20087;-75
2023/06/10 07:42:35;;;;;;;14.82;9.07;;;23.50;93.50;;;;;;4996048;28;20046;-74
2023/06/10 07:45:02;;;;;;;13.00;8.67;;;23.40;93.10;;;;;;5012056;28;20132;-75
2023/06/10 07:47:29;;;;;;;13.75;9.32;;;22.80;94.70;;;;;;5012256;28;20045;-74
2023/06/10 07:49:54;;;;;;;14.43;8.88;;;22.80;95.10;;;;;;5012138;28;20050;-74
2023/06/10 07:52:20;;;;;;;12.88;7.85;;;22.90;95.50;;;;;;4979357;28;20042;-74
2023/06/10 07:54:46;;;;;;;12.63;8.18;;;23.20;94.70;;;;;;5011895;28;20044;-75
2023/06/10 07:57:12;;;;;;;12.10;7.60;;;23.30;94.40;;;;;;5012112;28;20494;-75
2023/06/10 07:59:38;;;;;;;11.45;6.90;;;23.70;93.40;;;;;;5011753;28;20045;-75
2023/06/10 08:02:05;;;;;;;10.98;7.32;;;24.30;92.10;;;;;;4995519;28;20042;-74
2023/06/10 08:04:30;;;;;;;13.02;7.32;;;24.60;90.40;;;;;;5011837;28;20057;-74
2023/06/10 08:06:59;;;;;;;10.48;6.85;;;24.70;88.20;;;;;;4996029;28;20049;-74
2023/06/10 08:09:25;;;;;;;10.27;6.57;;;24.80;86.30;;;;;;4995706;28;20042;-74
2023/06/10 08:11:51;;;;;;;11.57;7.10;;;24.70;87.60;;;;;;5011820;28;20482;-74
2023/06/10 08:14:17;;;;;;;11.82;7.43;;;24.20;87.20;;;;;;5012007;28;20033;-74
2023/06/10 08:16:43;;;;;;;10.90;6.88;;;24.40;86.50;;;;;;4995536;28;20095;-74
2023/06/10 08:19:09;;;;;;;9.52;6.50;;;24.70;86.50;;;;;;4985660;28;20580;-74
2023/06/10 08:21:37;;;;;;;10.73;6.78;;;25.00;86.60;;;;;;5002925;28;20046;-73
2023/06/10 08:24:03;;;;;;;11.50;6.47;;;24.70;84.70;;;;;;5015351;28;20129;-73
2023/06/10 08:26:29;;;;;;;9.98;5.65;;;24.80;85.90;;;;;;5015328;28;20045;-73
2023/06/10 08:28:57;;;;;;;10.45;6.07;;;25.10;81.10;;;;;;4999178;28;20414;-73
2023/06/10 08:31:23;;;;;;;10.07;5.43;;;24.70;82.70;;;;;;5016346;28;20058;-73
2023/06/10 08:33:50;;;;;;;9.98;5.35;;;25.00;79.70;;;;;;4982614;28;20057;-74
2023/06/10 08:36:16;;;;;;;10.50;6.00;;;24.70;80.20;;;;;;5015152;28;20048;-73
2023/06/10 08:38:42;;;;;;;10.80;5.60;;;24.80;82.10;;;;;;5015050;28;20498;-73
2023/06/10 08:41:13;;;;;;;8.95;5.28;;;25.40;82.30;;;;;;4982634;28;20076;-73
2023/06/10 08:43:48;;;;;;;9.05;5.90;;;25.80;78.90;;;;;;5016232;28;20046;-73
2023/06/10 08:46:14;;;;;;;8.65;5.18;;;25.30;75.70;;;;;;4998644;28;20084;-72
2023/06/10 08:48:44;;;;;;;10.32;5.70;;;25.90;76.60;;;;;;4999102;28;20124;-72
2023/06/10 08:51:11;;;;;;;8.45;4.72;;;26.10;72.80;;;;;;4998968;28;20041;-75
2023/06/10 08:53:42;;;;;;;8.93;5.18;;;25.90;73.60;;;;;;4998471;28;20183;-73
2023/06/10 08:56:09;;;;;;;9.73;5.63;;;25.90;73.20;;;;;;4998799;28;20048;-73
2023/06/10 08:58:41;;;;;;;9.80;5.60;;;25.80;69.10;;;;;;5015004;28;20050;-73
2023/06/10 09:01:08;;;;;;;10.55;5.45;;;25.80;70.80;;;;;;5014677;28;20048;-73
2023/06/10 09:03:37;;;;;;;9.43;5.60;;;25.80;69.70;;;;;;5015044;28;20494;-74
2023/06/10 09:06:08;;;;;;;9.52;5.13;;;25.40;68.60;;;;;;5014650;28;20042;-73
2023/06/10 09:08:35;;;;;;;9.00;4.80;;;25.80;69.60;;;;;;5014631;28;20081;-74
2023/06/10 09:11:01;;;;;;;7.70;4.50;;;26.00;67.30;;;;;;5014471;28;20120;-73
2023/06/10 09:13:27;;;;;;;8.27;4.50;;;26.10;65.60;;;;;;5014464;28;20517;-74
2023/06/10 09:15:56;;;;;;;8.10;4.78;;;26.40;66.80;;;;;;4998382;28;20042;-74
2023/06/10 09:18:22;;;;;;;11.07;5.00;;;26.20;63.80;;;;;;4998396;28;20486;-74
2023/06/10 09:20:48;;;;;;;9.23;4.57;;;26.50;62.20;;;;;;4998422;28;20050;-74
2023/06/10 09:23:15;;;;;;;9.00;4.50;;;26.20;62.70;;;;;;5014424;28;20034;-74
2023/06/10 09:25:43;;;;;;;8.95;4.78;;;26.60;62.10;;;;;;5014344;28;20049;-74
2023/06/10 09:28:15;;;;;;;8.48;4.70;;;26.60;61.40;;;;;;5014156;28;20096;-74
2023/06/10 09:30:41;;;;;;;9.57;4.32;;;26.40;60.80;;;;;;5013352;28;20049;-74
2023/06/10 09:33:14;;;;;;;9.80;4.70;;;26.00;62.40;;;;;;5014157;28;20046;-74
2023/06/10 09:35:46;;;;;;;8.25;4.30;;;25.60;62.10;;;;;;5014055;28;20041;-74
2023/06/10 09:38:15;;;;;;;9.50;4.32;;;26.30;61.30;;;;;;4981440;28;20038;-74
2023/06/10 09:40:51;;;;;;;8.15;3.90;;;26.60;58.60;;;;;;5014233;28;20564;-74
2023/06/10 09:43:18;;;;;;;8.35;4.45;;;26.90;55.60;;;;;;4997910;28;20107;-74
2023/06/10 09:45:43;;;;;;;8.50;4.50;;;26.60;55.60;;;;;;5014019;28;20049;-74
2023/06/10 09:48:10;;;;;;;8.05;4.20;;;26.60;56.90;;;;;;4997522;28;20137;-74
2023/06/10 09:50:42;;;;;;;10.45;4.03;;;27.00;57.90;;;;;;4997759;28;20048;-74
2023/06/10 09:53:08;;;;;;;9.38;4.10;;;27.30;56.40;;;;;;5013564;28;20095;-75
2023/06/10 09:55:37;;;;;;;7.95;4.15;;;26.80;53.90;;;;;;4997503;28;20038;-74
2023/06/10 09:58:04;;;;;;;7.75;4.00;;;27.10;54.30;;;;;;4997714;28;20068;-74
2023/06/10 10:00:32;;;;;;;6.97;3.80;;;27.50;54.20;;;;;;4997218;28;20034;-75
2023/06/10 10:02:59;;;;;;;7.13;3.60;;;26.80;51.90;;;;;;4997515;28;20085;-75
2023/06/10 10:05:28;;;;;;;7.50;3.80;;;26.60;52.70;;;;;;4980982;28;20107;-74
2023/06/10 10:07:56;;;;;;;7.28;3.60;;;26.80;53.00;;;;;;4997342;28;20042;-74
2023/06/10 10:10:22;;;;;;;7.10;3.22;;;27.00;53.40;;;;;;5013656;28;20069;-74
2023/06/10 10:12:51;;;;;;;8.27;3.50;;;27.50;51.40;;;;;;5013412;28;20038;-75
2023/06/10 10:15:18;;;;;;;6.90;3.63;;;27.60;51.50;;;;;;4996900;28;20041;-74
2023/06/10 10:18:05;;;;;;;8.27;3.58;;;28.10;50.60;;;;;;5013246;28;20124;-74
2023/06/10 10:20:33;;;;;;;6.68;3.38;;;28.10;49.10;;;;;;5013481;28;20552;-74
2023/06/10 10:23:02;;;;;;;6.40;3.45;;;28.30;48.70;;;;;;5012995;28;20151;-75
2023/06/10 10:25:55;;;;;;;7.22;3.33;;;28.30;47.40;;;;;;5013424;28;20441;-75
2023/06/10 10:28:26;;;;;;;7.15;3.50;;;28.50;47.40;;;;;;5008598;28;20085;-75
2023/06/10 10:30:56;;;;;;;7.13;3.35;;;28.30;48.40;;;;;;5012843;28;20057;-75
2023/06/10 10:33:33;;;;;;;7.53;3.13;;;28.50;48.00;;;;;;5013012;28;20437;-74
2023/06/10 10:36:00;;;;;;;6.60;3.20;;;28.80;45.60;;;;;;4996806;28;20509;-74
2023/06/10 10:38:27;;;;;;;6.72;3.20;;;28.90;44.30;;;;;;5013145;28;20397;-74
2023/06/10 10:40:55;;;;;;;5.95;3.25;;;28.70;42.90;;;;;;4996679;28;20108;-74
2023/06/10 10:43:21;;;;;;;7.07;3.00;;;28.30;43.20;;;;;;5012141;28;20041;-73
2023/06/10 10:45:59;;;;;;;5.85;3.10;;;28.40;41.20;;;;;;4996695;28;20371;-73
2023/06/10 10:48:25;;;;;;;5.70;2.97;;;28.60;41.30;;;;;;5012724;28;20139;-74
2023/06/10 10:51:00;;;;;;;6.13;2.97;;;28.40;41.30;;;;;;4996565;28;20103;-74
2023/06/10 10:53:26;;;;;;;6.68;3.50;;;28.70;40.50;;;;;;4980388;28;20048;-73
2023/06/10 10:56:18;;;;;;;6.82;3.38;;;28.70;41.20;;;;;;5012569;28;20077;-73
2023/06/10 10:59:05;;;;;;;6.95;2.88;;;29.00;41.00;;;;;;5008401;28;20524;-73
2023/06/10 11:01:46;;;;;;;6.72;3.00;;;28.90;38.70;;;;;;5012547;28;20046;-74
2023/06/10 11:04:13;;;;;;;6.30;2.95;;;29.00;38.40;;;;;;5012783;28;20461;-74
2023/06/10 11:06:38;;;;;;;5.82;2.78;;;29.20;38.40;;;;;;4996205;28;20042;-74
2023/06/10 11:09:37;;;;;;;5.93;3.00;;;29.00;37.80;;;;;;5012653;28;20244;-74
2023/06/10 11:12:06;;;;;;;6.85;3.00;;;29.20;38.30;;;;;;4961409;28;20061;-74
2023/06/10 11:14:32;;;;;;;6.13;2.67;;;29.30;37.60;;;;;;4996336;28;20129;-74
2023/06/10 11:16:59;;;;;;;6.97;3.08;;;29.20;35.60;;;;;;4979912;28;20112;-74
2023/06/10 11:19:36;;;;;;;5.30;2.72;;;29.10;36.00;;;;;;4995854;28;20045;-73
2023/06/10 11:22:05;;;;;;;5.45;2.67;;;29.20;36.60;;;;;;5012442;28;20046;-74
2023/06/10 11:24:32;;;;;;;5.78;2.80;;;29.40;35.50;;;;;;5012509;28;20041;-75
2023/06/10 11:27:21;;;;;;;6.38;2.60;;;29.30;35.20;;;;;;5012149;28;20196;-74
2023/06/10 11:30:05;;;;;;;7.82;3.15;;;29.50;34.80;;;;;;5012109;28;20120;-74
2023/06/10 11:32:32;;;;;;;6.47;2.78;;;29.20;36.10;;;;;;5011968;28;20050;-74
2023/06/10 11:34:59;;;;;;;6.03;2.90;;;29.20;37.20;;;;;;4995625;28;20041;-74
2023/06/10 11:37:25;;;;;;;6.13;2.80;;;29.20;36.30;;;;;;4995932;28;20095;-74
2023/06/10 11:39:55;;;;;;;5.47;2.60;;;29.10;35.20;;;;;;5012265;28;20038;-74
2023/06/10 11:42:22;;;;;;;6.32;2.78;;;29.50;33.50;;;;;;5012033;28;20077;-74
2023/06/10 11:44:52;;;;;;;6.43;2.65;;;29.70;35.70;;;;;;5011960;28;20068;-74
2023/06/10 11:47:19;;;;;;;6.57;2.80;;;29.70;35.90;;;;;;5011934;28;20115;-74
2023/06/10 11:49:46;;;;;;;5.30;2.85;;;29.40;36.90;;;;;;4996006;28;20125;-73
2023/06/10 11:52:12;;;;;;;6.20;2.90;;;29.50;37.10;;;;;;5011712;28;20042;-73
2023/06/10 11:54:38;;;;;;;5.82;2.92;;;29.60;37.60;;;;;;5015276;28;20042;-74
2023/06/10 11:57:05;;;;;;;6.35;2.92;;;28.80;35.60;;;;;;4999468;28;20513;-74
2023/06/10 11:59:30;;;;;;;7.07;2.92;;;29.00;36.60;;;;;;5015700;28;20129;-74
2023/06/10 12:01:59;;;;;;;5.88;2.70;;;29.20;35.20;;;;;;4999721;28;20086;-74
2023/06/10 12:04:26;;;;;;;5.82;2.75;;;29.20;34.20;;;;;;4999335;28;20042;-74
2023/06/10 12:06:55;;;;;;;5.57;2.78;;;29.30;36.70;;;;;;4983484;28;20041;-74
2023/06/10 12:09:25;;;;;;;6.80;3.00;;;29.50;36.90;;;;;;4999637;28;20401;-73
2023/06/10 12:12:05;;;;;;;6.50;2.58;;;29.30;37.30;;;;;;5015581;28;20037;-74
2023/06/10 12:14:53;;;;;;;8.43;2.95;;;29.50;34.20;;;;;;4999663;28;20061;-75
2023/06/10 12:17:22;;;;;;;6.65;2.70;;;29.60;35.20;;;;;;5015527;28;20100;-74
2023/06/10 12:19:48;;;;;;;6.57;2.67;;;29.60;36.50;;;;;;5015700;28;20042;-74
2023/06/10 12:22:14;;;;;;;5.25;2.35;;;29.50;35.40;;;;;;5015618;28;20081;-74
2023/06/10 12:25:02;;;;;;;6.03;2.30;;;29.60;31.70;;;;;;4999304;28;20128;-73
2023/06/10 12:27:29;;;;;;;6.00;2.40;;;29.50;31.60;;;;;;4999370;28;20375;-74
2023/06/10 12:30:00;;;;;;;6.25;2.70;;;29.20;33.00;;;;;;4999151;28;20049;-74
2023/06/10 12:32:45;;;;;;;6.40;2.67;;;29.40;33.10;;;;;;5015125;28;20111;-74
2023/06/10 12:35:19;;;;;;;6.20;2.47;;;29.50;35.30;;;;;;5015515;28;20081;-74
2023/06/10 12:37:57;;;;;;;5.70;2.45;;;29.40;34.10;;;;;;4999201;28;20125;-74
2023/06/10 12:40:28;;;;;;;7.03;2.60;;;29.50;33.80;;;;;;4998819;28;20041;-74
2023/06/10 12:42:54;;;;;;;5.95;2.53;;;29.40;33.20;;;;;;4983021;28;20034;-74
2023/06/10 12:45:32;;;;;;;5.25;3.00;;;29.50;33.80;;;;;;5015096;28;20048;-74